createdAt,value
2019-03-18T00:00:08.174Z,54.31
2019-03-18T00:00:39.373Z,54.04
2019-03-18T00:01:10.588Z,54.36
2019-03-18T00:01:41.807Z,53.55
2019-03-18T00:02:13.023Z,53.65
2019-03-18T00:02:44.282Z,53.11
2019-03-18T00:03:15.499Z,52.56
2019-03-18T00:03:46.712Z,52.61
2019-03-18T00:04:17.935Z,52.42
2019-03-18T00:04:49.133Z,52.07
2019-03-18T00:05:20.339Z,51.59
2019-03-18T00:05:51.548Z,51.64
2019-03-18T00:06:22.780Z,51.77
2019-03-18T00:06:53.987Z,51.68
2019-03-18T00:07:25.241Z,51.49
2019-03-18T00:07:56.433Z,51.22
2019-03-18T00:08:27.640Z,51.03
2019-03-18T00:08:58.875Z,51.03
2019-03-18T00:09:30.063Z,50.95
2019-03-18T00:10:01.324Z,50.50
2019-03-18T00:10:32.526Z,50.22
2019-03-18T00:11:03.738Z,50.27
2019-03-18T00:11:34.933Z,50.49
2019-03-18T00:12:06.145Z,50.90
2019-03-18T00:12:37.371Z,51.08
2019-03-18T00:13:08.575Z,51.16
2019-03-18T00:13:39.813Z,51.14
2019-03-18T00:14:10.998Z,51.36
2019-03-18T00:14:42.196Z,51.67
2019-03-18T00:15:13.454Z,52.14
2019-03-18T00:15:44.710Z,51.83
2019-03-18T00:16:15.900Z,51.84
2019-03-18T00:16:47.116Z,51.45
2019-03-18T00:17:18.349Z,50.96
2019-03-18T00:17:49.555Z,51.46
2019-03-18T00:18:20.752Z,51.32
2019-03-18T00:18:52.019Z,50.52
2019-03-18T00:19:23.200Z,50.38
2019-03-18T00:19:54.416Z,50.46
2019-03-18T00:20:25.625Z,50.96
2019-03-18T00:20:56.834Z,51.79
2019-03-18T00:21:28.033Z,51.44
2019-03-18T00:21:59.234Z,51.28
2019-03-18T00:22:30.452Z,51.47
2019-03-18T00:23:01.672Z,51.24
2019-03-18T00:23:32.859Z,51.14
2019-03-18T00:24:04.062Z,51.31
2019-03-18T00:24:35.251Z,51.78
2019-03-18T00:25:06.492Z,51.27
2019-03-18T00:25:37.741Z,50.98
2019-03-18T00:26:08.940Z,51.10
2019-03-18T00:26:40.138Z,51.61
2019-03-18T00:27:11.390Z,51.28
2019-03-18T00:27:42.585Z,51.38
2019-03-18T00:28:13.814Z,51.24
2019-03-18T00:28:45.000Z,51.88
2019-03-18T00:29:16.213Z,52.18
2019-03-18T00:29:47.407Z,51.88
2019-03-18T00:30:18.621Z,51.71
2019-03-18T00:30:49.834Z,52.02
2019-03-18T00:31:21.025Z,52.21
2019-03-18T00:31:53.150Z,52.05
2019-03-18T00:32:24.355Z,51.64
2019-03-18T00:32:55.608Z,51.78
2019-03-18T00:33:26.814Z,51.49
2019-03-18T00:33:58.015Z,51.09
2019-03-18T00:34:29.229Z,51.41
2019-03-18T00:35:00.432Z,51.55
2019-03-18T00:35:31.669Z,51.56
2019-03-18T00:36:02.869Z,51.36
2019-03-18T00:36:34.096Z,51.38
2019-03-18T00:37:05.307Z,51.56
2019-03-18T00:37:36.506Z,51.80
2019-03-18T00:38:07.708Z,52.11
2019-03-18T00:38:38.905Z,52.41
2019-03-18T00:39:10.096Z,52.68
2019-03-18T00:39:41.343Z,52.76
2019-03-18T00:40:12.612Z,52.83
2019-03-18T00:40:43.845Z,52.94
2019-03-18T00:41:15.039Z,53.43
2019-03-18T00:41:46.247Z,53.46
2019-03-18T00:42:17.451Z,53.56
2019-03-18T00:42:48.655Z,53.94
2019-03-18T00:43:19.859Z,53.76
2019-03-18T00:43:51.057Z,53.45
2019-03-18T00:44:22.308Z,52.94
2019-03-18T00:44:53.510Z,52.65
2019-03-18T00:45:24.708Z,52.47
2019-03-18T00:45:55.913Z,52.46
2019-03-18T00:46:27.145Z,52.71
2019-03-18T00:46:58.324Z,52.75
2019-03-18T00:47:29.525Z,52.82
2019-03-18T00:48:00.775Z,53.08
2019-03-18T00:48:31.975Z,53.13
2019-03-18T00:49:03.169Z,52.78
2019-03-18T00:49:34.392Z,52.76
2019-03-18T00:50:05.591Z,52.60
2019-03-18T00:50:36.851Z,52.75
2019-03-18T00:51:08.058Z,52.66
2019-03-18T00:51:39.265Z,52.67
2019-03-18T00:52:10.480Z,52.62
2019-03-18T00:52:41.830Z,52.57
2019-03-18T00:53:13.941Z,52.66
2019-03-18T00:53:45.141Z,52.82
2019-03-18T00:54:16.381Z,52.99
2019-03-18T00:54:47.564Z,53.10
2019-03-18T00:55:18.780Z,53.31
2019-03-18T00:55:51.758Z,53.35
2019-03-18T00:56:22.990Z,53.36
2019-03-18T00:56:54.202Z,53.43
2019-03-18T00:57:25.418Z,53.51
2019-03-18T00:57:56.633Z,53.71
2019-03-18T00:58:27.834Z,54.12
2019-03-18T00:58:59.059Z,54.14
2019-03-18T00:59:30.271Z,54.18
2019-03-18T01:00:01.506Z,54.24
2019-03-18T01:00:32.709Z,54.25
2019-03-18T01:01:03.989Z,54.13
2019-03-18T01:01:35.191Z,53.95
2019-03-18T01:02:06.461Z,53.81
2019-03-18T01:02:37.741Z,53.79
2019-03-18T01:03:08.914Z,53.81
2019-03-18T01:03:40.120Z,53.75
2019-03-18T01:04:11.409Z,53.77
2019-03-18T01:04:42.575Z,53.71
2019-03-18T01:05:13.774Z,53.71
2019-03-18T01:05:45.011Z,54.06
2019-03-18T01:06:16.251Z,54.26
2019-03-18T01:06:47.520Z,54.21
2019-03-18T01:07:18.723Z,54.40
2019-03-18T01:07:49.928Z,54.74
2019-03-18T01:08:21.122Z,54.89
2019-03-18T01:08:52.334Z,55.43
2019-03-18T01:09:23.544Z,55.48
2019-03-18T01:09:54.736Z,55.63
2019-03-18T01:10:25.980Z,55.78
2019-03-18T01:10:57.183Z,55.86
2019-03-18T01:11:28.386Z,55.99
2019-03-18T01:11:59.634Z,56.03
2019-03-18T01:12:30.844Z,56.25
2019-03-18T01:13:02.060Z,56.39
2019-03-18T01:13:33.268Z,56.44
2019-03-18T01:14:04.471Z,56.41
2019-03-18T01:14:35.692Z,56.26
2019-03-18T01:15:06.899Z,56.36
2019-03-18T01:15:38.143Z,56.15
2019-03-18T01:16:09.348Z,55.97
2019-03-18T01:16:40.625Z,55.87
2019-03-18T01:17:11.839Z,55.89
2019-03-18T01:17:43.062Z,56.14
2019-03-18T01:18:15.369Z,56.21
2019-03-18T01:18:46.567Z,56.23
2019-03-18T01:19:17.775Z,55.99
2019-03-18T01:19:49.029Z,55.83
2019-03-18T01:20:20.245Z,55.62
2019-03-18T01:20:51.446Z,55.50
2019-03-18T01:21:22.653Z,55.42
2019-03-18T01:21:53.856Z,55.87
2019-03-18T01:22:25.056Z,56.03
2019-03-18T01:22:56.271Z,55.88
2019-03-18T01:23:27.547Z,55.89
2019-03-18T01:23:58.762Z,55.83
2019-03-18T01:24:30.004Z,55.89
2019-03-18T01:25:01.241Z,55.85
2019-03-18T01:25:32.449Z,55.79
2019-03-18T01:26:03.644Z,55.86
2019-03-18T01:26:34.844Z,56.05
2019-03-18T01:27:06.069Z,56.10
2019-03-18T01:27:37.294Z,56.16
2019-03-18T01:28:08.497Z,56.13
2019-03-18T01:28:39.705Z,56.29
2019-03-18T01:29:10.922Z,56.33
2019-03-18T01:29:42.182Z,56.56
2019-03-18T01:30:13.387Z,56.99
2019-03-18T01:30:44.597Z,57.00
2019-03-18T01:31:15.805Z,56.84
2019-03-18T01:31:47.024Z,56.64
2019-03-18T01:32:18.250Z,56.55
2019-03-18T01:32:49.454Z,56.62
2019-03-18T01:33:20.660Z,56.72
2019-03-18T01:33:51.863Z,56.90
2019-03-18T01:34:23.122Z,57.44
2019-03-18T01:34:54.322Z,58.50
2019-03-18T01:35:25.523Z,60.52
2019-03-18T01:35:56.723Z,61.71
2019-03-18T01:36:27.922Z,62.10
2019-03-18T01:36:59.141Z,62.08
2019-03-18T01:37:30.346Z,62.31
2019-03-18T01:38:01.616Z,62.72
2019-03-18T01:38:32.810Z,62.80
2019-03-18T01:39:04.014Z,63.06
2019-03-18T01:39:35.262Z,62.84
2019-03-18T01:40:06.471Z,62.66
2019-03-18T01:40:37.679Z,62.37
2019-03-18T01:41:08.878Z,62.09
2019-03-18T01:41:40.085Z,61.83
2019-03-18T01:42:11.291Z,61.46
2019-03-18T01:42:42.537Z,61.25
2019-03-18T01:43:13.732Z,61.15
2019-03-18T01:43:44.946Z,61.10
2019-03-18T01:44:16.159Z,61.54
2019-03-18T01:44:47.407Z,62.19
2019-03-18T01:45:18.622Z,61.71
2019-03-18T01:45:49.840Z,61.44
2019-03-18T01:46:21.046Z,60.28
2019-03-18T01:46:52.246Z,59.52
2019-03-18T01:47:23.458Z,59.62
2019-03-18T01:47:54.723Z,59.71
2019-03-18T01:48:25.983Z,59.72
2019-03-18T01:48:57.182Z,60.32
2019-03-18T01:49:28.439Z,60.26
2019-03-18T01:49:59.735Z,60.38
2019-03-18T01:50:30.931Z,60.47
2019-03-18T01:51:02.245Z,60.89
2019-03-18T01:51:33.456Z,61.31
2019-03-18T01:52:04.667Z,61.35
2019-03-18T01:52:35.877Z,61.47
2019-03-18T01:53:07.074Z,61.54
2019-03-18T01:53:38.294Z,61.65
2019-03-18T01:54:09.526Z,62.17
2019-03-18T01:54:40.721Z,62.59
2019-03-18T01:55:11.937Z,62.92
2019-03-18T01:55:43.180Z,63.26
2019-03-18T01:56:14.374Z,63.37
2019-03-18T01:56:45.584Z,63.90
2019-03-18T01:57:16.793Z,63.95
2019-03-18T01:57:47.991Z,64.30
2019-03-18T01:58:19.191Z,65.18
2019-03-18T01:58:50.422Z,65.14
2019-03-18T01:59:21.623Z,64.76
2019-03-18T01:59:52.854Z,64.53
2019-03-18T02:00:24.050Z,64.32
2019-03-18T02:00:55.284Z,64.09
2019-03-18T02:01:26.477Z,64.22
2019-03-18T02:01:57.685Z,64.20
2019-03-18T02:02:28.889Z,63.94
2019-03-18T02:03:00.112Z,63.84
2019-03-18T02:03:31.304Z,63.81
2019-03-18T02:04:02.528Z,63.74
2019-03-18T02:04:33.729Z,63.65
2019-03-18T02:05:04.927Z,63.82
2019-03-18T02:05:36.176Z,63.86
2019-03-18T02:06:07.376Z,63.91
2019-03-18T02:06:38.574Z,63.26
2019-03-18T02:07:09.784Z,63.03
2019-03-18T02:07:40.998Z,63.08
2019-03-18T02:08:12.247Z,63.15
2019-03-18T02:08:43.474Z,63.72
2019-03-18T02:09:14.698Z,63.54
2019-03-18T02:09:45.902Z,63.21
2019-03-18T02:10:17.111Z,63.18
2019-03-18T02:10:48.351Z,63.45
2019-03-18T02:11:19.585Z,63.23
2019-03-18T02:11:50.801Z,63.37
2019-03-18T02:12:22.006Z,63.79
2019-03-18T02:12:53.213Z,63.53
2019-03-18T02:13:24.411Z,63.30
2019-03-18T02:13:55.637Z,63.21
2019-03-18T02:14:26.838Z,63.18
2019-03-18T02:14:58.050Z,63.71
2019-03-18T02:15:29.298Z,63.88
2019-03-18T02:16:00.511Z,64.06
2019-03-18T02:16:31.729Z,64.08
2019-03-18T02:17:02.924Z,64.30
2019-03-18T02:17:34.124Z,64.55
2019-03-18T02:18:05.420Z,65.93
2019-03-18T02:18:36.643Z,65.90
2019-03-18T02:19:07.877Z,65.44
2019-03-18T02:19:39.073Z,64.39
2019-03-18T02:20:10.286Z,63.77
2019-03-18T02:20:41.501Z,64.15
2019-03-18T02:21:12.727Z,63.44
2019-03-18T02:21:43.921Z,63.48
2019-03-18T02:22:15.129Z,63.44
2019-03-18T02:22:46.327Z,63.46
2019-03-18T02:23:17.556Z,63.51
2019-03-18T02:23:48.763Z,63.60
2019-03-18T02:24:19.967Z,63.63
2019-03-18T02:24:51.165Z,63.66
2019-03-18T02:25:22.439Z,63.37
2019-03-18T02:25:53.643Z,63.17
2019-03-18T02:26:24.838Z,63.09
2019-03-18T02:26:56.029Z,63.12
2019-03-18T02:27:27.232Z,63.20
2019-03-18T02:27:58.430Z,63.26
2019-03-18T02:28:29.648Z,63.82
2019-03-18T02:29:00.851Z,63.93
2019-03-18T02:29:32.046Z,63.67
2019-03-18T02:30:03.242Z,63.55
2019-03-18T02:30:34.494Z,63.55
2019-03-18T02:31:05.692Z,63.52
2019-03-18T02:31:36.941Z,63.52
2019-03-18T02:32:08.114Z,63.62
2019-03-18T02:32:39.320Z,63.65
2019-03-18T02:33:10.564Z,63.66
2019-03-18T02:33:41.764Z,63.66
2019-03-18T02:34:12.959Z,63.76
2019-03-18T02:34:44.162Z,63.75
2019-03-18T02:35:15.346Z,63.68
2019-03-18T02:35:46.567Z,63.62
2019-03-18T02:36:17.763Z,63.64
2019-03-18T02:36:49.038Z,63.66
2019-03-18T02:37:20.234Z,63.61
2019-03-18T02:37:51.433Z,63.66
2019-03-18T02:38:22.636Z,63.68
2019-03-18T02:38:53.843Z,63.68
2019-03-18T02:39:25.104Z,63.55
2019-03-18T02:39:56.348Z,63.49
2019-03-18T02:40:27.554Z,63.53
2019-03-18T02:40:58.748Z,63.62
2019-03-18T02:41:29.985Z,63.58
2019-03-18T02:42:01.213Z,63.53
2019-03-18T02:42:32.440Z,63.58
2019-03-18T02:43:03.637Z,63.61
2019-03-18T02:43:34.844Z,63.71
2019-03-18T02:44:06.092Z,63.74
2019-03-18T02:44:37.296Z,64.03
2019-03-18T02:45:08.500Z,64.29
2019-03-18T02:45:39.708Z,64.35
2019-03-18T02:46:11.200Z,64.44
2019-03-18T02:46:42.615Z,64.34
2019-03-18T02:47:13.826Z,64.40
2019-03-18T02:47:45.038Z,64.34
2019-03-18T02:48:16.287Z,64.39
2019-03-18T02:48:47.485Z,64.39
2019-03-18T02:49:18.710Z,64.31
2019-03-18T02:49:49.924Z,64.39
2019-03-18T02:50:21.212Z,64.36
2019-03-18T02:50:52.407Z,64.34
2019-03-18T02:51:23.617Z,64.43
2019-03-18T02:51:54.826Z,64.49
2019-03-18T02:52:26.038Z,64.41
2019-03-18T02:52:57.244Z,64.42
2019-03-18T02:53:28.506Z,64.39
2019-03-18T02:53:59.707Z,64.50
2019-03-18T02:54:30.932Z,64.48
2019-03-18T02:55:02.173Z,64.43
2019-03-18T02:55:33.432Z,64.28
2019-03-18T02:56:04.630Z,64.14
2019-03-18T02:56:35.836Z,64.11
2019-03-18T02:57:07.044Z,64.04
2019-03-18T02:57:38.287Z,64.02
2019-03-18T02:58:09.485Z,64.01
2019-03-18T02:58:40.685Z,64.11
2019-03-18T02:59:11.895Z,64.10
2019-03-18T02:59:43.103Z,64.01
2019-03-18T03:00:14.309Z,63.96
2019-03-18T03:00:45.551Z,63.98
2019-03-18T03:01:16.749Z,64.02
2019-03-18T03:01:48.005Z,64.03
2019-03-18T03:02:19.180Z,64.08
2019-03-18T03:02:50.447Z,64.03
2019-03-18T03:03:21.669Z,64.00
2019-03-18T03:03:52.872Z,63.98
2019-03-18T03:04:24.125Z,63.92
2019-03-18T03:04:55.320Z,63.78
2019-03-18T03:05:26.544Z,63.69
2019-03-18T03:05:57.735Z,63.67
2019-03-18T03:06:28.935Z,63.72
2019-03-18T03:07:00.145Z,63.69
2019-03-18T03:07:31.412Z,63.60
2019-03-18T03:08:02.632Z,63.63
2019-03-18T03:08:33.841Z,63.60
2019-03-18T03:09:05.028Z,63.55
2019-03-18T03:09:36.344Z,63.37
2019-03-18T03:10:07.505Z,63.37
2019-03-18T03:10:38.719Z,63.24
2019-03-18T03:11:09.921Z,63.18
2019-03-18T03:11:41.140Z,63.31
2019-03-18T03:12:12.346Z,63.15
2019-03-18T03:12:43.604Z,63.00
2019-03-18T03:13:14.802Z,62.85
2019-03-18T03:13:46.007Z,62.87
2019-03-18T03:14:17.205Z,62.97
2019-03-18T03:14:48.433Z,62.96
2019-03-18T03:15:19.611Z,62.58
2019-03-18T03:15:50.824Z,62.34
2019-03-18T03:16:27.116Z,62.38
2019-03-18T03:16:55.082Z,62.33
2019-03-18T03:17:26.279Z,62.96
2019-03-18T03:17:57.495Z,63.01
2019-03-18T03:18:28.699Z,63.22
2019-03-18T03:18:59.897Z,63.42
2019-03-18T03:19:31.139Z,63.69
2019-03-18T03:20:02.341Z,63.89
2019-03-18T03:20:33.525Z,63.84
2019-03-18T03:21:04.732Z,63.75
2019-03-18T03:21:35.944Z,63.78
2019-03-18T03:22:07.136Z,63.81
2019-03-18T03:22:38.334Z,63.78
2019-03-18T03:23:09.554Z,63.66
2019-03-18T03:23:40.782Z,63.60
2019-03-18T03:24:12.159Z,63.55
2019-03-18T03:24:43.397Z,63.39
2019-03-18T03:25:14.598Z,63.23
2019-03-18T03:25:45.811Z,63.25
2019-03-18T03:26:17.019Z,63.22
2019-03-18T03:26:48.225Z,63.29
2019-03-18T03:27:19.440Z,63.46
2019-03-18T03:27:50.649Z,63.38
2019-03-18T03:28:21.848Z,63.35
2019-03-18T03:28:53.046Z,63.29
2019-03-18T03:29:24.309Z,63.88
2019-03-18T03:29:55.602Z,63.99
2019-03-18T03:30:26.787Z,64.25
2019-03-18T03:30:57.987Z,64.39
2019-03-18T03:31:29.296Z,64.34
2019-03-18T03:32:00.597Z,64.17
2019-03-18T03:32:31.801Z,63.25
2019-03-18T03:33:03.007Z,62.99
2019-03-18T03:33:34.213Z,62.99
2019-03-18T03:34:05.409Z,62.95
2019-03-18T03:34:36.623Z,62.93
2019-03-18T03:35:07.837Z,62.93
2019-03-18T03:35:39.065Z,63.05
2019-03-18T03:36:10.254Z,63.26
2019-03-18T03:36:41.458Z,63.38
2019-03-18T03:37:12.653Z,63.50
2019-03-18T03:37:43.863Z,63.59
2019-03-18T03:38:15.103Z,63.51
2019-03-18T03:38:46.327Z,63.46
2019-03-18T03:39:17.526Z,63.33
2019-03-18T03:39:48.724Z,63.34
2019-03-18T03:40:19.979Z,63.39
2019-03-18T03:40:51.189Z,63.46
2019-03-18T03:41:22.388Z,63.64
2019-03-18T03:41:53.600Z,64.09
2019-03-18T03:42:24.812Z,64.32
2019-03-18T03:42:56.060Z,65.15
2019-03-18T03:43:27.267Z,64.85
2019-03-18T03:43:58.471Z,64.70
2019-03-18T03:44:29.729Z,64.28
2019-03-18T03:45:00.918Z,64.07
2019-03-18T03:45:32.125Z,64.08
2019-03-18T03:46:03.342Z,64.27
2019-03-18T03:46:43.220Z,64.10
2019-03-18T03:47:07.482Z,63.81
2019-03-18T03:47:38.704Z,63.70
2019-03-18T03:48:09.958Z,63.76
2019-03-18T03:48:41.186Z,63.74
2019-03-18T03:49:12.436Z,64.00
2019-03-18T03:49:43.674Z,64.35
2019-03-18T03:50:14.861Z,64.21
2019-03-18T03:50:46.074Z,64.22
2019-03-18T03:51:17.268Z,63.99
2019-03-18T03:51:48.486Z,63.94
2019-03-18T03:52:19.766Z,64.07
2019-03-18T03:52:50.948Z,64.22
2019-03-18T03:53:22.158Z,64.36
2019-03-18T03:53:53.377Z,64.54
2019-03-18T03:54:24.636Z,64.70
2019-03-18T03:54:55.876Z,64.77
2019-03-18T03:55:27.087Z,65.00
2019-03-18T03:55:58.307Z,65.07
2019-03-18T03:56:29.536Z,65.23
2019-03-18T03:57:00.728Z,65.38
2019-03-18T03:57:31.927Z,65.39
2019-03-18T03:58:03.152Z,65.44
2019-03-18T03:58:34.340Z,65.39
2019-03-18T03:59:05.536Z,65.36
2019-03-18T03:59:36.751Z,65.34
2019-03-18T04:00:08.008Z,65.41
2019-03-18T04:00:39.216Z,65.50
2019-03-18T04:01:10.420Z,65.54
2019-03-18T04:01:41.620Z,65.61
2019-03-18T04:02:12.815Z,65.51
2019-03-18T04:02:44.020Z,65.40
2019-03-18T04:03:15.255Z,65.34
2019-03-18T04:03:46.505Z,65.40
2019-03-18T04:04:17.709Z,65.46
2019-03-18T04:04:48.957Z,65.55
2019-03-18T04:05:20.140Z,65.64
2019-03-18T04:05:52.398Z,65.57
2019-03-18T04:06:23.605Z,65.42
2019-03-18T04:06:54.819Z,65.45
2019-03-18T04:07:26.026Z,65.41
2019-03-18T04:07:57.267Z,65.35
2019-03-18T04:08:28.474Z,65.41
2019-03-18T04:08:59.709Z,65.45
2019-03-18T04:09:30.921Z,65.34
2019-03-18T04:10:02.217Z,65.05
2019-03-18T04:10:33.414Z,65.08
2019-03-18T04:11:08.164Z,65.19
2019-03-18T04:11:38.226Z,65.19
2019-03-18T04:12:09.453Z,65.11
2019-03-18T04:12:40.630Z,65.27
2019-03-18T04:13:11.843Z,65.40
2019-03-18T04:13:43.043Z,65.52
2019-03-18T04:14:14.264Z,65.47
2019-03-18T04:14:45.484Z,65.64
2019-03-18T04:15:16.723Z,65.92
2019-03-18T04:15:47.927Z,66.20
2019-03-18T04:16:19.121Z,66.06
2019-03-18T04:17:01.679Z,66.01
2019-03-18T04:17:23.250Z,66.11
2019-03-18T04:17:54.457Z,66.36
2019-03-18T04:18:25.663Z,66.30
2019-03-18T04:18:56.974Z,66.76
2019-03-18T04:19:28.304Z,67.16
2019-03-18T04:19:59.515Z,67.62
2019-03-18T04:20:30.742Z,68.03
2019-03-18T04:21:01.981Z,68.42
2019-03-18T04:21:33.190Z,68.63
2019-03-18T04:22:04.395Z,69.05
2019-03-18T04:22:35.597Z,69.44
2019-03-18T04:23:06.805Z,69.23
2019-03-18T04:23:38.093Z,69.06
2019-03-18T04:24:09.297Z,68.80
2019-03-18T04:24:40.524Z,68.50
2019-03-18T04:25:11.739Z,68.26
2019-03-18T04:25:42.936Z,68.25
2019-03-18T04:26:14.150Z,68.22
2019-03-18T04:26:45.375Z,68.26
2019-03-18T04:27:16.621Z,68.21
2019-03-18T04:27:47.891Z,68.04
2019-03-18T04:28:19.068Z,67.57
2019-03-18T04:28:50.297Z,67.17
2019-03-18T04:29:21.521Z,67.00
2019-03-18T04:29:52.722Z,67.06
2019-03-18T04:30:23.929Z,67.10
2019-03-18T04:30:55.153Z,67.19
2019-03-18T04:31:26.345Z,67.24
2019-03-18T04:31:57.600Z,67.26
2019-03-18T04:32:28.805Z,67.30
2019-03-18T04:33:00.064Z,67.67
2019-03-18T04:33:31.275Z,68.01
2019-03-18T04:34:02.543Z,68.08
2019-03-18T04:34:33.763Z,67.98
2019-03-18T04:35:04.962Z,67.94
2019-03-18T04:35:36.201Z,68.02
2019-03-18T04:36:07.450Z,68.11
2019-03-18T04:36:38.645Z,68.24
2019-03-18T04:37:09.863Z,68.30
2019-03-18T04:37:41.055Z,68.31
2019-03-18T04:38:12.252Z,68.36
2019-03-18T04:38:43.490Z,68.49
2019-03-18T04:39:14.694Z,68.37
2019-03-18T04:39:45.914Z,68.14
2019-03-18T04:40:17.115Z,67.98
2019-03-18T04:40:48.328Z,67.87
2019-03-18T04:41:19.544Z,67.57
2019-03-18T04:41:50.749Z,67.28
2019-03-18T04:42:21.964Z,67.03
2019-03-18T04:42:53.163Z,66.87
2019-03-18T04:43:24.431Z,66.67
2019-03-18T04:43:55.645Z,66.37
2019-03-18T04:44:26.854Z,66.20
2019-03-18T04:44:58.099Z,66.00
2019-03-18T04:45:29.291Z,65.57
2019-03-18T04:46:00.497Z,65.30
2019-03-18T04:46:31.717Z,64.90
2019-03-18T04:47:13.741Z,64.71
2019-03-18T04:47:35.866Z,64.53
2019-03-18T04:48:07.074Z,64.24
2019-03-18T04:48:38.315Z,63.92
2019-03-18T04:49:09.527Z,63.45
2019-03-18T04:49:40.725Z,63.17
2019-03-18T04:50:11.983Z,62.60
2019-03-18T04:50:43.188Z,62.26
2019-03-18T04:51:14.474Z,61.96
2019-03-18T04:51:45.692Z,61.78
2019-03-18T04:52:16.897Z,61.61
2019-03-18T04:52:48.090Z,61.53
2019-03-18T04:53:19.301Z,61.45
2019-03-18T04:53:50.514Z,61.02
2019-03-18T04:54:21.725Z,60.55
2019-03-18T04:54:52.924Z,60.20
2019-03-18T04:55:24.181Z,59.59
2019-03-18T04:55:55.393Z,59.33
2019-03-18T04:56:26.608Z,59.11
2019-03-18T04:56:57.853Z,58.81
2019-03-18T04:57:29.093Z,58.46
2019-03-18T04:58:00.319Z,57.57
2019-03-18T04:58:31.524Z,57.17
2019-03-18T04:59:02.731Z,56.90
2019-03-18T04:59:33.928Z,56.68
2019-03-18T05:00:05.153Z,56.65
2019-03-18T05:00:36.397Z,56.24
2019-03-18T05:01:07.637Z,55.98
2019-03-18T05:01:38.844Z,55.76
2019-03-18T05:02:10.047Z,55.20
2019-03-18T05:02:41.255Z,54.77
2019-03-18T05:03:12.472Z,54.61
2019-03-18T05:03:43.669Z,54.87
2019-03-18T05:04:14.892Z,54.99
2019-03-18T05:04:46.177Z,54.91
2019-03-18T05:05:17.448Z,54.68
2019-03-18T05:05:48.651Z,54.44
2019-03-18T05:06:19.869Z,54.10
2019-03-18T05:06:51.092Z,53.94
2019-03-18T05:07:22.294Z,53.62
2019-03-18T05:07:53.492Z,53.63
2019-03-18T05:08:24.697Z,53.61
2019-03-18T05:08:55.935Z,53.62
2019-03-18T05:09:27.146Z,53.90
2019-03-18T05:09:58.361Z,54.26
2019-03-18T05:10:29.612Z,54.65
2019-03-18T05:11:00.824Z,54.89
2019-03-18T05:11:32.022Z,55.21
2019-03-18T05:12:03.241Z,55.29
2019-03-18T05:12:34.449Z,55.36
2019-03-18T05:13:05.689Z,55.85
2019-03-18T05:13:36.952Z,56.37
2019-03-18T05:14:08.121Z,56.66
2019-03-18T05:14:39.335Z,56.72
2019-03-18T05:15:10.531Z,56.67
2019-03-18T05:15:41.848Z,56.83
2019-03-18T05:16:13.054Z,56.68
2019-03-18T05:16:44.282Z,56.47
2019-03-18T05:17:26.117Z,56.44
2019-03-18T05:17:48.426Z,56.29
2019-03-18T05:18:19.629Z,56.17
2019-03-18T05:18:50.838Z,56.15
2019-03-18T05:19:22.048Z,56.12
2019-03-18T05:19:53.240Z,56.05
2019-03-18T05:20:24.464Z,55.96
2019-03-18T05:20:55.705Z,56.07
2019-03-18T05:21:27.039Z,56.08
2019-03-18T05:21:58.239Z,56.25
2019-03-18T05:22:29.478Z,56.35
2019-03-18T05:23:00.703Z,56.30
2019-03-18T05:23:31.907Z,56.17
2019-03-18T05:24:03.170Z,56.05
2019-03-18T05:24:34.343Z,56.11
2019-03-18T05:25:05.560Z,56.14
2019-03-18T05:25:36.794Z,56.31
2019-03-18T05:26:07.993Z,56.31
2019-03-18T05:26:39.203Z,56.18
2019-03-18T05:27:10.422Z,56.15
2019-03-18T05:27:41.663Z,56.21
2019-03-18T05:28:12.873Z,56.15
2019-03-18T05:28:44.091Z,56.03
2019-03-18T05:29:15.285Z,56.13
2019-03-18T05:29:46.499Z,55.92
2019-03-18T05:30:17.706Z,55.76
2019-03-18T05:30:48.903Z,55.68
2019-03-18T05:31:20.103Z,55.42
2019-03-18T05:31:51.322Z,55.16
2019-03-18T05:32:22.536Z,54.73
2019-03-18T05:32:53.797Z,54.59
2019-03-18T05:33:25.022Z,54.38
2019-03-18T05:33:56.279Z,54.12
2019-03-18T05:34:27.480Z,54.18
2019-03-18T05:34:58.691Z,53.93
2019-03-18T05:35:29.892Z,53.74
2019-03-18T05:36:02.052Z,53.61
2019-03-18T05:36:33.268Z,53.56
2019-03-18T05:37:04.494Z,53.50
2019-03-18T05:37:35.729Z,53.44
2019-03-18T05:38:06.937Z,53.18
2019-03-18T05:38:38.175Z,53.38
2019-03-18T05:39:09.418Z,53.07
2019-03-18T05:39:40.639Z,53.00
2019-03-18T05:40:11.874Z,52.97
2019-03-18T05:40:43.075Z,52.88
2019-03-18T05:41:14.320Z,52.70
2019-03-18T05:41:45.493Z,52.51
2019-03-18T05:42:16.684Z,52.19
2019-03-18T05:42:47.924Z,52.09
2019-03-18T05:43:19.148Z,52.01
2019-03-18T05:43:50.361Z,51.94
2019-03-18T05:44:21.560Z,51.81
2019-03-18T05:44:52.763Z,51.69
2019-03-18T05:45:24.025Z,51.62
2019-03-18T05:45:55.257Z,51.26
2019-03-18T05:46:26.476Z,51.26
2019-03-18T05:46:57.678Z,51.25
2019-03-18T05:47:38.539Z,51.01
2019-03-18T05:48:01.844Z,51.07
2019-03-18T05:48:33.047Z,51.30
2019-03-18T05:49:04.248Z,51.20
2019-03-18T05:49:35.459Z,51.07
2019-03-18T05:50:06.670Z,51.01
2019-03-18T05:50:37.914Z,50.83
2019-03-18T05:51:09.135Z,50.57
2019-03-18T05:51:40.387Z,50.59
2019-03-18T05:52:11.585Z,50.72
2019-03-18T05:52:42.805Z,50.67
2019-03-18T05:53:14.008Z,50.78
2019-03-18T05:53:45.230Z,50.83
2019-03-18T05:54:16.439Z,50.75
2019-03-18T05:54:47.637Z,50.66
2019-03-18T05:55:18.841Z,50.70
2019-03-18T05:55:50.101Z,50.80
2019-03-18T05:56:21.298Z,50.73
2019-03-18T05:56:52.499Z,50.54
2019-03-18T05:57:25.911Z,50.56
2019-03-18T05:57:56.644Z,50.39
2019-03-18T05:58:27.891Z,50.49
2019-03-18T05:58:59.086Z,50.59
2019-03-18T05:59:30.305Z,50.26
2019-03-18T06:00:01.518Z,50.02
2019-03-18T06:00:32.727Z,50.15
2019-03-18T06:01:03.955Z,50.22
2019-03-18T06:01:35.164Z,49.68
2019-03-18T06:02:06.367Z,49.48
2019-03-18T06:02:37.560Z,49.53
2019-03-18T06:03:08.777Z,49.60
2019-03-18T06:03:40.001Z,49.57
2019-03-18T06:04:11.247Z,49.49
2019-03-18T06:04:42.520Z,49.15
2019-03-18T06:05:13.737Z,49.10
2019-03-18T06:05:44.941Z,49.00
2019-03-18T06:06:16.163Z,49.01
2019-03-18T06:06:47.376Z,48.68
2019-03-18T06:07:18.574Z,48.61
2019-03-18T06:07:49.785Z,48.66
2019-03-18T06:08:21.001Z,48.75
2019-03-18T06:08:52.194Z,48.73
2019-03-18T06:09:23.415Z,48.67
2019-03-18T06:09:54.684Z,48.81
2019-03-18T06:10:26.067Z,48.84
2019-03-18T06:10:57.298Z,48.85
2019-03-18T06:11:28.506Z,48.90
2019-03-18T06:11:59.728Z,48.60
2019-03-18T06:12:30.961Z,48.31
2019-03-18T06:13:02.195Z,48.27
2019-03-18T06:13:33.399Z,48.24
2019-03-18T06:14:04.599Z,48.13
2019-03-18T06:14:35.810Z,47.86
2019-03-18T06:15:07.034Z,47.94
2019-03-18T06:15:38.279Z,47.84
2019-03-18T06:16:09.508Z,47.71
2019-03-18T06:16:40.710Z,47.77
2019-03-18T06:17:11.921Z,47.59
2019-03-18T06:17:52.080Z,47.50
2019-03-18T06:18:16.084Z,47.81
2019-03-18T06:18:47.302Z,47.55
2019-03-18T06:19:18.510Z,47.27
2019-03-18T06:19:49.714Z,46.95
2019-03-18T06:20:20.968Z,46.74
2019-03-18T06:20:52.232Z,46.45
2019-03-18T06:21:23.503Z,46.23
2019-03-18T06:21:54.726Z,46.29
2019-03-18T06:22:25.944Z,46.45
2019-03-18T06:22:57.156Z,46.21
2019-03-18T06:23:28.405Z,46.11
2019-03-18T06:23:59.623Z,45.94
2019-03-18T06:24:30.882Z,45.45
2019-03-18T06:25:02.105Z,45.17
2019-03-18T06:25:33.365Z,45.01
2019-03-18T06:26:04.627Z,44.70
2019-03-18T06:26:35.876Z,44.61
2019-03-18T06:27:07.093Z,44.44
2019-03-18T06:27:38.305Z,44.27
2019-03-18T06:28:09.525Z,44.06
2019-03-18T06:28:40.740Z,44.09
2019-03-18T06:29:11.970Z,44.32
2019-03-18T06:29:43.183Z,44.56
2019-03-18T06:30:14.395Z,44.69
2019-03-18T06:30:45.640Z,44.70
2019-03-18T06:31:16.874Z,44.66
2019-03-18T06:31:48.483Z,44.64
2019-03-18T06:32:19.725Z,44.80
2019-03-18T06:32:50.940Z,44.89
2019-03-18T06:33:22.144Z,44.97
2019-03-18T06:33:53.381Z,45.03
2019-03-18T06:34:24.599Z,45.11
2019-03-18T06:34:55.807Z,45.18
2019-03-18T06:35:27.006Z,45.40
2019-03-18T06:35:58.255Z,45.57
2019-03-18T06:36:29.516Z,45.61
2019-03-18T06:37:00.728Z,45.62
2019-03-18T06:37:31.936Z,45.76
2019-03-18T06:38:03.135Z,45.97
2019-03-18T06:38:34.383Z,46.15
2019-03-18T06:39:05.583Z,46.27
2019-03-18T06:39:36.779Z,46.42
2019-03-18T06:40:07.992Z,46.57
2019-03-18T06:40:39.211Z,46.80
2019-03-18T06:41:10.419Z,46.98
2019-03-18T06:41:41.669Z,47.20
2019-03-18T06:42:12.878Z,47.34